createdAt,value
2022-07-27T00:01:18.442Z,3.30
2022-07-27T00:03:47.032Z,0.93
2022-07-27T00:06:16.127Z,0.80
2022-07-27T00:08:44.237Z,2.13
2022-07-27T00:11:13.790Z,2.75
2022-07-27T00:13:41.814Z,1.85
2022-07-27T00:16:09.821Z,3.70
2022-07-27T00:18:37.947Z,1.13
2022-07-27T00:21:06.070Z,1.05
2022-07-27T00:23:34.393Z,1.67
2022-07-27T00:26:02.401Z,4.10
2022-07-27T00:28:30.321Z,0.98
2022-07-27T00:30:58.414Z,0.77
2022-07-27T00:33:26.284Z,1.67
2022-07-27T00:35:54.166Z,1.15
2022-07-27T00:38:22.222Z,1.50
2022-07-27T00:40:50.238Z,1.05
2022-07-27T00:43:18.387Z,1.48
2022-07-27T00:45:48.729Z,0.85
2022-07-27T00:48:16.816Z,1.25
2022-07-27T00:50:45.312Z,2.47
2022-07-27T00:53:14.034Z,0.95
2022-07-27T00:55:42.283Z,0.88
2022-07-27T00:58:10.481Z,1.15
2022-07-27T01:00:39.322Z,1.40
2022-07-27T01:03:09.039Z,2.30
2022-07-27T01:05:43.282Z,4.75
2022-07-27T01:08:15.536Z,1.42
2022-07-27T01:10:44.278Z,1.95
2022-07-27T01:13:13.392Z,1.13
2022-07-27T01:15:43.502Z,1.13
2022-07-27T01:18:28.382Z,1.83
2022-07-27T01:20:57.171Z,2.17
2022-07-27T01:23:26.276Z,7.97
2022-07-27T01:25:54.864Z,1.33
2022-07-27T01:28:22.876Z,0.75
2022-07-27T01:30:51.622Z,2.03
2022-07-27T01:33:26.136Z,1.02
2022-07-27T01:35:55.790Z,1.48
2022-07-27T01:38:23.864Z,2.55
2022-07-27T01:40:52.519Z,0.98
2022-07-27T01:43:21.504Z,1.15
2022-07-27T01:45:49.959Z,1.85
2022-07-27T01:48:18.436Z,0.90
2022-07-27T01:50:47.756Z,2.72
2022-07-27T01:53:16.096Z,2.25
2022-07-27T01:55:44.364Z,3.92
2022-07-27T01:58:12.647Z,1.63
2022-07-27T02:00:41.078Z,3.15
2022-07-27T02:03:10.495Z,0.70
2022-07-27T02:05:40.028Z,1.30
2022-07-27T02:08:08.673Z,1.25
2022-07-27T02:11:01.182Z,4.45
2022-07-27T02:13:29.103Z,0.95
2022-07-27T02:15:57.347Z,0.77
2022-07-27T02:18:33.435Z,2.40
2022-07-27T02:21:06.278Z,0.95
2022-07-27T02:23:35.349Z,2.85
2022-07-27T02:26:04.278Z,1.48
2022-07-27T02:28:32.580Z,1.48
2022-07-27T02:31:00.719Z,1.15
2022-07-27T02:33:29.028Z,3.10
2022-07-27T02:35:56.948Z,0.95
2022-07-27T02:38:26.132Z,1.63
2022-07-27T02:40:54.362Z,2.03
2022-07-27T02:43:23.019Z,1.10
2022-07-27T02:45:51.650Z,1.58
2022-07-27T02:48:19.578Z,2.17
2022-07-27T02:50:47.569Z,1.98
2022-07-27T02:53:15.457Z,0.63
2022-07-27T02:55:43.409Z,1.42
2022-07-27T02:58:11.289Z,0.45
2022-07-27T03:00:39.136Z,3.33
2022-07-27T03:03:07.247Z,4.32
2022-07-27T03:05:35.205Z,1.52
2022-07-27T03:08:04.319Z,0.80
2022-07-27T03:10:32.470Z,0.50
2022-07-27T03:13:00.325Z,1.30
2022-07-27T03:15:29.881Z,0.55
2022-07-27T03:17:58.021Z,1.42
2022-07-27T03:20:25.980Z,1.02
2022-07-27T03:22:56.649Z,3.47
2022-07-27T03:25:24.755Z,3.40
2022-07-27T03:27:52.936Z,3.42
2022-07-27T03:30:21.058Z,0.82
2022-07-27T03:32:48.935Z,1.35
2022-07-27T03:35:16.766Z,1.52
2022-07-27T03:37:47.831Z,2.22
2022-07-27T03:40:15.877Z,1.13
2022-07-27T03:42:43.725Z,2.67
2022-07-27T03:45:11.656Z,0.90
2022-07-27T03:47:39.513Z,0.80
2022-07-27T03:50:07.917Z,1.95
2022-07-27T03:52:36.015Z,0.50
2022-07-27T03:55:04.211Z,1.02
2022-07-27T03:57:32.196Z,2.35
2022-07-27T04:00:00.320Z,1.20
2022-07-27T04:02:28.293Z,1.08
2022-07-27T04:04:56.076Z,0.75
2022-07-27T04:07:23.955Z,5.03
2022-07-27T04:09:51.908Z,2.05
2022-07-27T04:12:20.210Z,1.85
2022-07-27T04:14:49.335Z,1.20
2022-07-27T04:17:54.070Z,1.00
2022-07-27T04:20:05.950Z,0.82
2022-07-27T04:22:33.828Z,1.17
2022-07-27T04:25:01.765Z,2.42
2022-07-27T04:27:29.690Z,2.03
2022-07-27T04:29:57.541Z,0.85
2022-07-27T04:32:25.479Z,1.27
2022-07-27T04:34:53.386Z,2.05
2022-07-27T04:37:21.306Z,1.58
2022-07-27T04:39:49.195Z,0.77
2022-07-27T04:42:17.264Z,1.60
2022-07-27T04:44:45.100Z,2.33
2022-07-27T04:47:12.992Z,1.95
2022-07-27T04:49:41.058Z,2.45
2022-07-27T04:52:09.044Z,1.13
2022-07-27T04:54:37.002Z,1.10
2022-07-27T04:57:05.074Z,1.88
2022-07-27T04:59:32.954Z,2.35
2022-07-27T05:02:00.697Z,2.63
2022-07-27T05:04:28.578Z,1.00
2022-07-27T05:06:58.371Z,4.30
2022-07-27T05:09:26.384Z,0.60
2022-07-27T05:11:54.087Z,5.05
2022-07-27T05:14:22.163Z,5.88
2022-07-27T05:16:50.852Z,1.40
2022-07-27T05:19:18.967Z,2.40
2022-07-27T05:21:46.835Z,1.73
2022-07-27T05:24:14.785Z,3.00
2022-07-27T05:26:44.726Z,5.45
2022-07-27T05:29:12.908Z,1.75
2022-07-27T05:31:41.050Z,1.67
2022-07-27T05:34:09.044Z,1.27
2022-07-27T05:36:37.145Z,2.47
2022-07-27T05:39:08.185Z,0.75
2022-07-27T05:41:39.685Z,2.15
2022-07-27T05:44:07.723Z,3.92
2022-07-27T05:46:36.873Z,6.28
2022-07-27T05:49:06.358Z,3.58
2022-07-27T05:51:34.582Z,12.20
2022-07-27T05:54:02.698Z,3.10
2022-07-27T05:56:30.785Z,9.55
2022-07-27T05:58:59.373Z,3.65
2022-07-27T06:01:29.785Z,2.33
2022-07-27T06:03:57.992Z,3.30
2022-07-27T06:06:44.405Z,3.13
2022-07-27T06:09:12.883Z,3.17
2022-07-27T06:11:41.889Z,3.20
2022-07-27T06:14:09.904Z,3.00
2022-07-27T06:16:37.990Z,1.63
2022-07-27T06:19:06.361Z,6.28
2022-07-27T06:21:34.255Z,3.08
2022-07-27T06:24:02.176Z,4.75
2022-07-27T06:26:30.281Z,3.78
2022-07-27T06:29:01.207Z,5.85
2022-07-27T06:31:35.708Z,2.58
2022-07-27T06:34:11.538Z,6.07
2022-07-27T06:36:42.605Z,2.15
2022-07-27T06:39:11.121Z,4.03
2022-07-27T06:41:39.248Z,4.68
2022-07-27T06:44:09.174Z,4.53
2022-07-27T06:46:37.344Z,4.07
2022-07-27T06:49:05.498Z,5.00
2022-07-27T06:51:33.563Z,5.35
2022-07-27T06:54:01.512Z,5.10
2022-07-27T06:56:29.515Z,7.43
2022-07-27T06:58:57.600Z,3.42
2022-07-27T07:01:25.937Z,5.05
2022-07-27T07:03:56.404Z,3.97
2022-07-27T07:06:24.493Z,4.18
2022-07-27T07:08:52.944Z,3.45
2022-07-27T07:11:21.437Z,4.63
2022-07-27T07:13:49.333Z,3.55
2022-07-27T07:16:17.494Z,1.50
2022-07-27T07:18:50.224Z,2.88
2022-07-27T07:21:20.149Z,3.60
2022-07-27T07:23:48.056Z,5.85
2022-07-27T07:26:16.058Z,2.83
2022-07-27T07:28:44.120Z,2.60
2022-07-27T07:31:12.377Z,4.00
2022-07-27T07:33:40.949Z,2.83
2022-07-27T07:36:13.746Z,6.75
2022-07-27T07:38:43.126Z,4.65
2022-07-27T07:41:11.460Z,2.33
2022-07-27T07:43:40.346Z,2.97
2022-07-27T07:46:09.041Z,3.60
2022-07-27T07:48:39.242Z,2.67
2022-07-27T07:51:07.281Z,2.88
2022-07-27T07:53:40.865Z,4.90
2022-07-27T07:56:09.588Z,1.80
2022-07-27T07:58:37.547Z,2.88
2022-07-27T08:01:05.684Z,2.72
2022-07-27T08:03:33.731Z,2.67
2022-07-27T08:06:01.849Z,4.07
2022-07-27T08:08:31.170Z,0.95
2022-07-27T08:10:59.363Z,2.00
2022-07-27T08:13:27.340Z,1.45
2022-07-27T08:15:55.395Z,2.38
2022-07-27T08:18:23.378Z,2.42
2022-07-27T08:20:51.456Z,1.17
2022-07-27T08:23:19.908Z,2.58
2022-07-27T08:25:47.996Z,1.48
2022-07-27T08:28:16.180Z,2.35
2022-07-27T08:30:44.144Z,3.60
2022-07-27T08:33:12.203Z,1.75
2022-07-27T08:35:40.110Z,4.47
2022-07-27T08:38:09.742Z,2.33
2022-07-27T08:40:44.088Z,3.30
2022-07-27T08:43:23.966Z,5.75
2022-07-27T08:45:55.948Z,0.93
2022-07-27T08:48:29.302Z,3.90
2022-07-27T08:50:58.027Z,3.90
2022-07-27T08:53:26.517Z,2.33
2022-07-27T08:56:15.009Z,3.90
2022-07-27T08:58:44.430Z,3.15
2022-07-27T09:01:12.534Z,1.38
2022-07-27T09:03:40.762Z,3.65
2022-07-27T09:06:08.974Z,2.25
2022-07-27T09:08:38.683Z,2.25
2022-07-27T09:11:15.550Z,2.55
2022-07-27T09:13:43.719Z,2.28
2022-07-27T09:16:18.143Z,1.98
2022-07-27T09:18:47.176Z,2.83
2022-07-27T09:21:21.258Z,3.88
2022-07-27T09:23:54.551Z,2.20
2022-07-27T09:26:33.160Z,4.15
2022-07-27T09:29:13.595Z,2.80
2022-07-27T09:31:51.689Z,1.80
2022-07-27T09:34:31.418Z,2.67
2022-07-27T09:37:00.314Z,2.20
2022-07-27T09:39:30.055Z,2.35
2022-07-27T09:42:02.053Z,3.85
2022-07-27T09:44:43.151Z,2.03
2022-07-27T09:47:27.335Z,2.05
2022-07-27T09:49:58.446Z,4.03
2022-07-27T09:55:07.035Z,1.90
2022-07-27T09:57:57.077Z,4.13
2022-07-27T10:00:26.082Z,1.13
2022-07-27T10:02:55.469Z,2.00
2022-07-27T10:05:24.517Z,3.17
2022-07-27T10:07:54.360Z,2.50
2022-07-27T10:10:23.367Z,2.53
2022-07-27T10:12:55.289Z,4.75
2022-07-27T10:15:25.305Z,2.63
2022-07-27T10:18:17.760Z,1.75
2022-07-27T10:20:47.546Z,2.08
2022-07-27T10:23:35.002Z,4.63
2022-07-27T10:26:19.193Z,2.15
2022-07-27T10:29:01.479Z,2.35
2022-07-27T10:31:38.084Z,2.80
2022-07-27T10:34:08.927Z,2.70
2022-07-27T10:39:07.638Z,2.92
2022-07-27T10:41:40.636Z,9.25
2022-07-27T10:44:17.977Z,1.08
2022-07-27T10:46:47.489Z,1.75
2022-07-27T10:49:24.967Z,1.15
2022-07-27T10:51:53.764Z,2.13
2022-07-27T10:54:23.788Z,2.58
2022-07-27T10:56:56.949Z,4.75
2022-07-27T11:00:07.036Z,1.23
2022-07-27T11:02:42.599Z,3.22
2022-07-27T11:10:51.608Z,1.63
2022-07-27T11:13:21.800Z,1.75
2022-07-27T11:16:23.035Z,6.75
2022-07-27T11:19:04.978Z,2.97
2022-07-27T11:21:36.463Z,2.58
2022-07-27T11:24:14.258Z,2.03
2022-07-27T11:26:45.086Z,1.48
2022-07-27T11:29:15.205Z,1.67
2022-07-27T11:31:55.430Z,3.40
2022-07-27T11:36:58.603Z,1.65
2022-07-27T11:39:59.080Z,3.67
2022-07-27T11:42:20.800Z,2.65
2022-07-27T11:44:50.014Z,1.50
2022-07-27T11:47:20.559Z,2.72
2022-07-27T11:49:48.741Z,3.50
2022-07-27T11:52:18.741Z,0.93
2022-07-27T11:54:51.838Z,2.45
2022-07-27T11:57:21.053Z,3.47
2022-07-27T11:59:49.221Z,7.22
2022-07-27T12:02:20.588Z,2.05
2022-07-27T12:04:50.369Z,1.77
2022-07-27T12:07:24.238Z,2.00
2022-07-27T12:09:58.645Z,3.05
2022-07-27T12:12:30.938Z,3.15
2022-07-27T12:15:16.632Z,1.13
2022-07-27T12:17:59.604Z,1.58
2022-07-27T12:20:35.540Z,2.88
2022-07-27T12:23:09.062Z,1.40
2022-07-27T12:25:37.674Z,1.58
2022-07-27T12:28:07.810Z,3.75
2022-07-27T12:30:47.405Z,2.85
2022-07-27T12:33:37.434Z,3.73
2022-07-27T12:36:07.276Z,1.45
2022-07-27T12:38:46.601Z,1.03
2022-07-27T12:41:29.960Z,4.35
2022-07-27T12:44:18.389Z,3.15
2022-07-27T12:46:54.072Z,2.75
2022-07-27T12:49:26.395Z,1.25
2022-07-27T12:51:57.808Z,1.60
2022-07-27T12:54:25.842Z,1.75
2022-07-27T12:56:54.397Z,1.52
2022-07-27T12:59:23.822Z,6.60
2022-07-27T13:01:53.247Z,4.40
2022-07-27T13:04:21.463Z,1.98
2022-07-27T13:06:49.514Z,2.22
2022-07-27T13:09:18.065Z,3.92
2022-07-27T13:11:48.051Z,2.25
2022-07-27T13:14:16.594Z,4.30
2022-07-27T13:16:44.647Z,5.10
2022-07-27T13:19:16.012Z,3.85
2022-07-27T13:21:44.540Z,3.08
2022-07-27T13:24:12.876Z,5.10
2022-07-27T13:26:41.455Z,10.40
2022-07-27T13:29:10.307Z,1.58
2022-07-27T13:31:38.532Z,2.83
2022-07-27T13:34:06.823Z,2.80
2022-07-27T13:36:34.705Z,3.70
2022-07-27T13:39:02.753Z,2.95
2022-07-27T13:41:30.761Z,6.05
2022-07-27T13:43:58.673Z,2.08
2022-07-27T13:46:26.810Z,3.90
2022-07-27T13:48:54.802Z,4.28
2022-07-27T13:51:25.718Z,1.65
2022-07-27T13:53:53.984Z,2.65
2022-07-27T13:56:23.818Z,2.90
2022-07-27T13:58:51.851Z,6.72
2022-07-27T14:01:19.824Z,2.35
2022-07-27T14:03:47.948Z,2.67
2022-07-27T14:06:16.712Z,4.75
2022-07-27T14:08:45.383Z,2.88
2022-07-27T14:11:13.541Z,5.53
2022-07-27T14:13:41.403Z,1.95
2022-07-27T14:16:10.282Z,3.33
2022-07-27T14:18:38.784Z,2.17
2022-07-27T14:21:09.281Z,4.90
2022-07-27T14:23:38.094Z,0.93
2022-07-27T14:26:07.691Z,3.42
2022-07-27T14:28:36.557Z,2.70
2022-07-27T14:31:10.147Z,2.03
2022-07-27T14:33:38.669Z,2.78
2022-07-27T14:36:08.407Z,2.95
2022-07-27T14:38:37.293Z,1.00
2022-07-27T14:41:08.855Z,4.32
2022-07-27T14:43:37.398Z,7.40
2022-07-27T14:46:05.331Z,2.35
2022-07-27T14:49:03.375Z,1.95
2022-07-27T14:51:21.117Z,4.28
2022-07-27T14:53:48.997Z,2.45
2022-07-27T14:56:17.259Z,2.30
2022-07-27T14:58:45.206Z,2.55
2022-07-27T15:01:16.611Z,2.72
2022-07-27T15:03:45.481Z,2.72
2022-07-27T15:06:13.406Z,3.63
2022-07-27T15:08:41.538Z,2.08
2022-07-27T15:11:10.268Z,2.67
2022-07-27T15:13:38.241Z,0.80
2022-07-27T15:16:07.324Z,3.53
2022-07-27T15:18:38.678Z,2.75
2022-07-27T15:21:13.336Z,3.35
2022-07-27T15:23:44.953Z,1.17
2022-07-27T15:26:13.505Z,2.15
2022-07-27T15:28:42.422Z,2.47
2022-07-27T15:31:10.876Z,3.35
2022-07-27T15:33:38.964Z,2.10
2022-07-27T15:36:07.213Z,3.55
2022-07-27T15:38:35.459Z,4.47
2022-07-27T15:41:03.577Z,3.05
2022-07-27T15:43:31.393Z,1.23
2022-07-27T15:45:59.342Z,3.90
2022-07-27T15:48:27.706Z,2.63
2022-07-27T15:50:58.221Z,3.35
2022-07-27T15:53:27.129Z,5.00
2022-07-27T15:55:55.446Z,1.80
2022-07-27T15:58:23.687Z,2.03
2022-07-27T16:00:56.081Z,1.85
2022-07-27T16:03:26.763Z,1.70
2022-07-27T16:05:55.020Z,22.85
2022-07-27T16:08:23.183Z,3.08
2022-07-27T16:10:53.081Z,4.50
2022-07-27T16:13:23.350Z,1.85
2022-07-27T16:16:10.777Z,1.85
2022-07-27T16:18:39.243Z,3.15
2022-07-27T16:21:07.771Z,3.20
2022-07-27T16:23:35.658Z,1.80
2022-07-27T16:26:05.707Z,2.35
2022-07-27T16:28:39.327Z,3.20
2022-07-27T16:31:10.558Z,5.53
2022-07-27T16:33:38.944Z,2.47
2022-07-27T16:36:08.880Z,1.80
2022-07-27T16:38:48.054Z,1.20
2022-07-27T16:43:49.484Z,9.02
2022-07-27T16:46:17.899Z,1.88
2022-07-27T16:48:45.980Z,2.28
2022-07-27T16:51:16.252Z,5.82
2022-07-27T16:53:48.414Z,1.40
2022-07-27T16:56:16.267Z,4.97
2022-07-27T16:58:44.851Z,3.03
2022-07-27T17:01:22.031Z,1.20
2022-07-27T17:03:56.572Z,4.57
2022-07-27T17:06:25.093Z,1.33
2022-07-27T17:08:52.981Z,8.18
2022-07-27T17:11:22.159Z,5.28
2022-07-27T17:13:51.299Z,1.38
2022-07-27T17:16:27.862Z,8.52
2022-07-27T17:18:55.996Z,5.40
2022-07-27T17:21:23.828Z,2.28
2022-07-27T17:23:52.426Z,4.78
2022-07-27T17:26:20.532Z,5.03
2022-07-27T17:28:52.339Z,2.38
2022-07-27T17:31:21.555Z,2.53
2022-07-27T17:33:50.355Z,3.08
2022-07-27T17:36:18.016Z,2.88
2022-07-27T17:38:47.286Z,6.45
2022-07-27T17:41:23.571Z,2.47
2022-07-27T17:43:52.961Z,4.95
2022-07-27T17:46:22.033Z,3.67
2022-07-27T17:48:50.124Z,2.92
2022-07-27T17:51:18.581Z,2.60
2022-07-27T17:53:46.990Z,2.83
2022-07-27T17:56:14.694Z,6.93
2022-07-27T17:58:44.375Z,2.83
2022-07-27T18:01:12.322Z,9.15
2022-07-27T18:03:41.341Z,5.93
2022-07-27T18:06:08.888Z,3.58
2022-07-27T18:08:37.056Z,6.80
2022-07-27T18:11:04.862Z,2.92
2022-07-27T18:13:37.945Z,4.10
2022-07-27T18:16:12.363Z,8.07
2022-07-27T18:18:41.616Z,3.75
2022-07-27T18:21:11.318Z,1.33
2022-07-27T18:23:39.844Z,2.17
2022-07-27T18:26:08.044Z,9.65
2022-07-27T18:28:39.553Z,2.53
2022-07-27T18:31:10.543Z,5.90
2022-07-27T18:33:40.662Z,3.58
2022-07-27T18:36:08.530Z,4.83
2022-07-27T18:38:35.990Z,3.45
2022-07-27T18:41:03.650Z,3.53
2022-07-27T18:43:31.566Z,3.78
2022-07-27T18:46:02.003Z,2.33
2022-07-27T18:48:30.073Z,5.47
2022-07-27T18:50:57.932Z,2.55
2022-07-27T18:53:25.880Z,1.40
2022-07-27T18:55:56.509Z,3.55
2022-07-27T18:58:25.138Z,2.95
2022-07-27T19:00:54.803Z,5.22
2022-07-27T19:03:24.496Z,10.75
2022-07-27T19:05:56.149Z,13.18
2022-07-27T19:08:24.707Z,3.80
2022-07-27T19:10:52.687Z,3.50
2022-07-27T19:13:21.366Z,5.75
2022-07-27T19:15:49.446Z,8.18
2022-07-27T19:18:17.411Z,2.65
2022-07-27T19:20:45.385Z,3.80
2022-07-27T19:23:13.685Z,4.72
2022-07-27T19:25:41.848Z,4.82
2022-07-27T19:28:09.920Z,3.72
2022-07-27T19:30:39.120Z,9.23
2022-07-27T19:33:07.292Z,8.65
2022-07-27T19:35:35.399Z,19.85
2022-07-27T19:38:04.807Z,13.88
2022-07-27T19:40:44.151Z,21.00
2022-07-27T19:43:13.159Z,27.42
2022-07-27T19:45:41.671Z,25.40
2022-07-27T19:48:09.557Z,24.15
2022-07-27T19:50:37.423Z,11.43
2022-07-27T19:53:05.594Z,8.15
2022-07-27T19:55:33.766Z,26.17
2022-07-27T19:58:02.643Z,50.67
2022-07-27T20:00:33.905Z,29.67
2022-07-27T20:03:02.070Z,13.82
2022-07-27T20:05:30.171Z,6.60
2022-07-27T20:07:58.260Z,4.25
2022-07-27T20:10:26.593Z,3.63
2022-07-27T20:12:57.563Z,9.48
2022-07-27T20:15:25.983Z,2.35
2022-07-27T20:17:53.556Z,4.78
2022-07-27T20:20:21.264Z,6.13
2022-07-27T20:22:48.933Z,1.20
2022-07-27T20:25:18.685Z,4.32
2022-07-27T20:27:47.532Z,3.33
2022-07-27T20:30:20.218Z,3.63
2022-07-27T20:32:49.327Z,11.18
2022-07-27T20:35:18.386Z,2.13
2022-07-27T20:37:47.606Z,1.23
2022-07-27T20:40:16.028Z,3.67
2022-07-27T20:42:44.058Z,2.05
2022-07-27T20:45:14.761Z,2.92
2022-07-27T20:47:43.751Z,1.88
2022-07-27T20:50:14.459Z,2.10
2022-07-27T20:52:42.903Z,2.75
2022-07-27T20:55:12.203Z,0.95
2022-07-27T20:57:40.139Z,2.17
2022-07-27T21:00:09.624Z,3.97
2022-07-27T21:02:38.029Z,2.00
2022-07-27T21:05:07.510Z,3.53
2022-07-27T21:07:35.348Z,2.22
2022-07-27T21:10:03.878Z,1.23
2022-07-27T21:12:31.623Z,1.95
2022-07-27T21:15:00.510Z,1.02
2022-07-27T21:17:28.530Z,1.13
2022-07-27T21:19:56.710Z,1.52
2022-07-27T21:22:24.315Z,1.48
2022-07-27T21:24:52.616Z,5.70
2022-07-27T21:27:21.507Z,2.13
2022-07-27T21:29:49.573Z,1.58
2022-07-27T21:32:18.306Z,2.28
2022-07-27T21:34:45.684Z,1.25
2022-07-27T21:37:13.373Z,3.80
2022-07-27T21:39:41.233Z,2.60
2022-07-27T21:42:08.815Z,1.15
2022-07-27T21:44:37.720Z,2.35
2022-07-27T21:47:13.089Z,1.55
2022-07-27T21:49:41.445Z,2.20
2022-07-27T21:52:09.264Z,3.97
2022-07-27T21:54:36.625Z,1.67
2022-07-27T21:57:04.338Z,5.32
2022-07-27T21:59:31.925Z,2.78
2022-07-27T22:02:01.138Z,1.58
2022-07-27T22:04:29.231Z,0.95
2022-07-27T22:06:57.200Z,2.33
2022-07-27T22:09:25.082Z,3.33
2022-07-27T22:11:52.674Z,2.47
2022-07-27T22:14:24.277Z,1.88
2022-07-27T22:16:53.247Z,0.88
2022-07-27T22:19:21.185Z,4.63
2022-07-27T22:21:49.226Z,2.40
2022-07-27T22:24:17.568Z,2.55
2022-07-27T22:26:45.676Z,2.00
2022-07-27T22:29:13.722Z,2.17
2022-07-27T22:31:42.316Z,2.17
2022-07-27T22:34:10.368Z,2.05
2022-07-27T22:36:45.923Z,0.80
2022-07-27T22:39:13.890Z,1.20
2022-07-27T22:41:41.767Z,1.00
2022-07-27T22:44:09.768Z,1.98
2022-07-27T22:46:38.319Z,1.02
2022-07-27T22:49:06.209Z,2.00
2022-07-27T22:51:50.355Z,1.10
2022-07-27T22:54:24.005Z,1.48
2022-07-27T22:56:52.209Z,0.98
2022-07-27T22:59:20.920Z,0.60
2022-07-27T23:01:49.083Z,1.92
2022-07-27T23:04:18.126Z,2.80
2022-07-27T23:06:46.574Z,0.77
2022-07-27T23:09:14.908Z,0.57
2022-07-27T23:11:43.111Z,0.65
2022-07-27T23:14:11.985Z,0.75
2022-07-27T23:16:40.524Z,1.33
2022-07-27T23:19:08.592Z,1.23
2022-07-27T23:21:37.481Z,3.60
2022-07-27T23:24:05.532Z,0.43
2022-07-27T23:26:33.590Z,1.58
2022-07-27T23:29:02.056Z,1.95
2022-07-27T23:31:32.292Z,1.40
2022-07-27T23:34:00.640Z,1.75
2022-07-27T23:36:28.692Z,1.10
2022-07-27T23:38:56.846Z,2.47
2022-07-27T23:41:24.801Z,0.70
2022-07-27T23:43:52.654Z,2.03
2022-07-27T23:46:20.598Z,0.95
2022-07-27T23:48:49.045Z,1.10
2022-07-27T23:51:18.814Z,3.75
2022-07-27T23:53:47.782Z,0.75
2022-07-27T23:56:16.193Z,1.40
2022-07-27T23:58:45.141Z,2.72
